KMTH/MTH METAR and TAF weather

Enter ICAO airport designator
Station Type Date Time Source
KMTH METAR 2019/02/20 16:53 UTC NOAA

KMTH 201653Z AUTO 13014G20KT 10SM CLR 29/21 A3010 RMK AO2 SLP191 T02890211 $


Station Type Date Time Source
KMTH Decoded METAR 2019/02/20 16:53 UTC NOAA

MARATHON AIRPORT, FL, United States (KMTH) 24-44N 81-03W 2M
Feb 20, 2019 - 11:53 AM EST / 2019.02.20 1653 UTC
Wind: from the SE (130 degrees) at 16 MPH (14 KT) gusting to 23 MPH (20 KT):0
Visibility: 10 mile(s):0
Sky conditions: clear
Temperature: 84.0 F (28.9 C)
Dew Point: 70.0 F (21.1 C)
Relative Humidity: 62%
Pressure (altimeter): 30.1 in. Hg (1019 hPa)
ob: KMTH 201653Z AUTO 13014G20KT 10SM CLR 29/21 A3010 RMK AO2 SLP191 T02890211
cycle: 17

Station Type Date Time Source
KMTH TAF 2019/02/20 18:27 UTC NOAA

TAF KMTH 201724Z 2018/2118 13012G18KT P6SM FEW025 SCT050
FM210500 12011KT P6SM VCSH SCT025 BKN050


Example: see airport list